Weather at Oberschleißheim Airfield

Public forecast

Using degrees Celsius for public forecast. Weather courtesy of forecast.io.

Closest aviation weather report (METAR) to Oberschleißheim Airfield

Closest report is Munich Airport, 11.3 nm (20.9 km) NE. Retrieved 2022/06/28 12:20 UTC (0 seconds ago):

EDDM 281220Z AUTO 05006KT 360V080 9999 OVC038 21/15 Q1020 NOSIG

Closest aviation forecast (TAF) to Oberschleißheim Airfield

Closest forecast is Munich Airport, 11.3 nm (20.9 km) NE. Retrieved 2022/06/28 12:27 UTC (0 seconds ago):

TAF EDDM 281100Z 2812/2918 07007KT 9999 BKN040 PROB30 TEMPO 2815/2818 14012KT TSRA SCT025 BKN040CB BECMG 2820/2822 01004KT BECMG 2901/2903 28006KT TEMPO 2902/2907 BKN010 PROB40 TEMPO 2911/2917 27012KT SHRA SCT010 BKN020CB